Lowest pressure

Not for real navigation. The accuracy of this data is not assured See disclaimer for more information



ICAO NAME COUNTRY WIND Kt GUST Kt VIS m TEMP/DEW C BARO METAR
NZSP Amundsen-Scott South Pole Stat Antarctica 12 0 9999 -57/0 28.08 NZSP 281150Z 08012KT 3200 IC BR CAVOK M57/ A2808 RMK CLN AIR 07011KT ALL WNDS GRID
NZCM Williams Field Antarctica 7 0 8000 -14/-14 28.87 NZCM 281155Z 11007KT 8000 -SN OVC055 M14/M14 A2887 RMK SNB0845 SLP782
SCRM 13 0 3000 -18/-21 29.09 SCRM 281200Z 08013KT 3000 SN SCT002 OVC010 M18/M21 Q0985
EGPO Stornoway United Kingdom 11 0 9999 15/14 29.35 EGPO 281220Z 17011KT 9999 -RA FEW014 BKN024 15/14 Q0994
EGPL Benbecula United Kingdom 18 0 9999 16/13 29.35 EGPL 281220Z 19018KT 9999 VCSH FEW011 SCT017 16/13 Q0994

Show more